Rabat, Morocco
Current Conditions -  °F | °C
As of 6:30 AM on Tuesday 21 Oct 2014 (Local Time) from GMME Reporting Station
Clear Clear  
Wind Chill: 57°   Ceiling: Unl
Heat Index: 57°   Visibility: 6mi
Dew Point: 48°   Wind: 1mph
Humidity: 72%   Direction: 140°SE
Pressure: 30.06"   Gusts: NA
Location:  34.02°N, 6.84°W
Report Text: GMME 210530Z 14001KT CAVOK 14/09 Q1018 NOSIG
Loading
Personal Weather Stations






























Interactive Weather Map
Tropical Storm Tracking
New forecast layout! Learn more

10-Day Weather Forecast

Advertisements
Track Severe Weather on mobile